Time;durP1;ratioP1;P1;durP2;ratioP2;P2;SDS_P1;SDS_P2;PMS_P1;PMS_P2;Temp;Humidity;BMP_temperature;BMP_pressure;BME280_temperature;BME280_humidity;BME280_pressure;Samples;Min_cycle;Max_cycle;Signal;HPM_P1;HPM_P2
2021/05/26 00:00:52;;;;;;;13.30;6.50;;;6.80;99.90;;;;;;5053888;28;20021;-78
2021/05/26 00:03:17;;;;;;;11.32;6.65;;;6.80;99.90;;;;;;5053819;28;20384;-78
2021/05/26 00:05:43;;;;;;;9.57;5.88;;;6.80;99.90;;;;;;5064750;28;20033;-78
2021/05/26 00:08:09;;;;;;;10.45;5.68;;;6.70;99.90;;;;;;5073436;28;20017;-78
2021/05/26 00:10:34;;;;;;;9.20;5.60;;;6.70;99.90;;;;;;5073222;28;20028;-79
2021/05/26 00:13:00;;;;;;;9.07;5.60;;;6.70;99.90;;;;;;5066237;28;20031;-78
2021/05/26 00:15:26;;;;;;;10.48;6.22;;;6.70;99.90;;;;;;5062698;28;20473;-80
2021/05/26 00:17:51;;;;;;;10.85;5.40;;;6.70;99.90;;;;;;5070651;28;20021;-79
2021/05/26 00:20:17;;;;;;;11.88;5.53;;;6.70;99.90;;;;;;5053663;28;20074;-78
2021/05/26 00:22:43;;;;;;;11.48;6.20;;;6.70;99.90;;;;;;5054571;28;20608;-78
2021/05/26 00:25:09;;;;;;;11.10;5.43;;;6.60;99.90;;;;;;5073614;28;20379;-78
2021/05/26 00:27:34;;;;;;;12.13;6.20;;;6.60;99.90;;;;;;5074381;28;20033;-78
2021/05/26 00:30:00;;;;;;;9.30;5.70;;;6.60;99.90;;;;;;5091018;28;20027;-78
2021/05/26 00:32:26;;;;;;;13.73;5.82;;;6.60;99.90;;;;;;5093545;28;20024;-78
2021/05/26 00:34:51;;;;;;;11.20;5.60;;;6.60;99.90;;;;;;5094770;28;20453;-78
2021/05/26 00:37:17;;;;;;;8.65;6.18;;;6.60;99.90;;;;;;5093462;28;20023;-78
2021/05/26 00:39:43;;;;;;;7.93;6.55;;;6.70;99.90;;;;;;5085099;28;20474;-78
2021/05/26 00:42:09;;;;;;;15.35;5.43;;;6.60;99.90;;;;;;5073118;28;20032;-78
2021/05/26 00:44:34;;;;;;;12.60;6.10;;;6.60;99.90;;;;;;5053477;28;20056;-79
2021/05/26 00:47:00;;;;;;;10.32;5.30;;;6.60;99.90;;;;;;5059704;28;20055;-79
2021/05/26 00:49:27;;;;;;;9.70;5.15;;;6.60;99.90;;;;;;5072896;28;20024;-78
2021/05/26 00:51:53;;;;;;;10.77;5.13;;;6.50;99.90;;;;;;5072997;28;20020;-78
2021/05/26 00:54:18;;;;;;;9.90;6.15;;;6.50;99.90;;;;;;5071994;28;20115;-78
2021/05/26 00:56:44;;;;;;;12.73;5.38;;;6.50;99.90;;;;;;5090546;28;20020;-79
2021/05/26 00:59:10;;;;;;;9.73;5.72;;;6.50;99.90;;;;;;5094285;28;20043;-79
2021/05/26 01:01:36;;;;;;;7.13;5.60;;;6.50;99.90;;;;;;5094511;28;20469;-79
2021/05/26 01:04:02;;;;;;;9.32;6.05;;;6.50;99.90;;;;;;5079120;28;20401;-79
2021/05/26 01:06:28;;;;;;;13.80;6.15;;;6.50;99.90;;;;;;5073181;28;20542;-79
2021/05/26 01:08:54;;;;;;;10.57;5.93;;;6.40;99.90;;;;;;5062086;28;20108;-78
2021/05/26 01:11:19;;;;;;;9.30;5.20;;;6.40;99.90;;;;;;5092855;28;20024;-78
2021/05/26 01:13:45;;;;;;;13.65;5.68;;;6.40;99.90;;;;;;5069270;28;20051;-78
2021/05/26 01:16:11;;;;;;;9.27;5.72;;;6.40;99.90;;;;;;5088794;28;20477;-78
2021/05/26 01:18:37;;;;;;;11.95;5.75;;;6.40;99.90;;;;;;5092679;28;20031;-78
2021/05/26 01:21:06;;;;;;;10.50;5.25;;;6.30;99.90;;;;;;5088021;28;20092;-78
2021/05/26 01:23:32;;;;;;;11.90;6.93;;;6.40;99.90;;;;;;5068694;28;20071;-79
2021/05/26 01:26:00;;;;;;;13.68;6.47;;;6.30;99.90;;;;;;5054159;28;20471;-79
2021/05/26 01:28:28;;;;;;;8.32;6.20;;;6.30;99.90;;;;;;5052202;28;20429;-78
2021/05/26 01:30:55;;;;;;;6.72;5.00;;;6.30;99.90;;;;;;5053522;28;20024;-78
2021/05/26 01:33:22;;;;;;;10.00;5.85;;;6.20;99.90;;;;;;5053361;28;20028;-78
2021/05/26 01:35:49;;;;;;;13.80;5.28;;;6.10;99.90;;;;;;5053447;28;20056;-78
2021/05/26 01:38:17;;;;;;;8.48;5.28;;;6.10;99.90;;;;;;5053242;28;20043;-78
2021/05/26 01:40:42;;;;;;;11.93;5.65;;;6.10;99.90;;;;;;5052095;28;20021;-78
2021/05/26 01:43:08;;;;;;;10.75;5.50;;;6.00;99.90;;;;;;5062302;28;20443;-78
2021/05/26 01:45:34;;;;;;;8.15;4.88;;;6.00;99.90;;;;;;5072088;28;20039;-79
2021/05/26 01:48:00;;;;;;;9.63;6.28;;;6.00;99.90;;;;;;5071959;28;20381;-78
2021/05/26 01:50:26;;;;;;;7.72;5.40;;;5.90;99.90;;;;;;5072825;28;20027;-79
2021/05/26 01:53:12;;;;;;;12.10;6.00;;;5.90;99.90;;;;;;5069315;28;20127;-78
2021/05/26 01:55:39;;;;;;;7.15;4.72;;;5.90;99.90;;;;;;5069183;28;20036;-78
2021/05/26 01:58:05;;;;;;;7.63;4.72;;;5.90;99.90;;;;;;5093309;28;20042;-78
2021/05/26 02:00:31;;;;;;;6.90;5.47;;;5.90;99.90;;;;;;5092033;28;20024;-78
2021/05/26 02:02:57;;;;;;;9.27;6.60;;;5.90;99.90;;;;;;5086515;28;20059;-78
2021/05/26 02:05:23;;;;;;;8.48;6.28;;;5.80;99.90;;;;;;5051616;28;20488;-78
2021/05/26 02:07:49;;;;;;;11.20;5.60;;;5.80;99.90;;;;;;5056569;28;20811;-78
2021/05/26 02:10:17;;;;;;;15.93;5.00;;;5.80;99.90;;;;;;5073517;28;20013;-78
2021/05/26 02:12:44;;;;;;;12.10;6.18;;;5.70;99.90;;;;;;5071545;28;20017;-78
2021/05/26 02:15:13;;;;;;;16.05;5.85;;;5.70;99.90;;;;;;5074076;28;20032;-78
2021/05/26 02:17:39;;;;;;;10.13;6.00;;;5.70;99.90;;;;;;5051396;28;20569;-78
2021/05/26 02:20:07;;;;;;;9.00;5.90;;;5.60;99.90;;;;;;5052892;28;20092;-79
2021/05/26 02:22:34;;;;;;;7.18;5.00;;;5.60;99.90;;;;;;5052556;28;20438;-78
2021/05/26 02:25:00;;;;;;;10.15;5.63;;;5.60;99.90;;;;;;5051512;28;20021;-78
2021/05/26 02:27:26;;;;;;;9.88;5.35;;;5.70;99.90;;;;;;5051406;28;20032;-78
2021/05/26 02:29:52;;;;;;;6.68;4.45;;;5.70;99.90;;;;;;5051448;28;20079;-78
2021/05/26 02:32:17;;;;;;;9.07;4.55;;;5.70;99.90;;;;;;5055947;28;20029;-78
2021/05/26 02:34:43;;;;;;;9.43;4.50;;;5.70;99.90;;;;;;5056439;28;20048;-80
2021/05/26 02:37:09;;;;;;;8.18;4.50;;;5.70;99.90;;;;;;5052849;28;20078;-79
2021/05/26 02:39:34;;;;;;;8.20;4.63;;;5.70;99.90;;;;;;5051363;28;20017;-79
2021/05/26 02:42:00;;;;;;;7.75;5.38;;;5.70;99.90;;;;;;5070619;28;20036;-79
2021/05/26 02:44:26;;;;;;;9.85;5.38;;;5.70;99.90;;;;;;5051224;28;20025;-78
2021/05/26 02:46:52;;;;;;;9.07;4.93;;;5.70;99.90;;;;;;5051307;28;20025;-78
2021/05/26 02:49:17;;;;;;;9.60;5.70;;;5.70;99.90;;;;;;5052490;28;20036;-78
2021/05/26 02:51:43;;;;;;;10.50;6.00;;;5.60;99.90;;;;;;5055571;28;20021;-79
2021/05/26 02:54:10;;;;;;;13.70;6.93;;;5.60;99.90;;;;;;5073213;28;20608;-78
2021/05/26 02:56:36;;;;;;;18.67;10.27;;;5.50;99.90;;;;;;5063459;28;20017;-78
2021/05/26 02:59:04;;;;;;;16.88;9.32;;;5.50;99.90;;;;;;5069112;28;20127;-78
2021/05/26 03:01:30;;;;;;;17.17;8.40;;;5.50;99.90;;;;;;5076160;28;20474;-78
2021/05/26 03:03:56;;;;;;;14.93;7.63;;;5.50;99.90;;;;;;5075000;28;20066;-78
2021/05/26 03:06:22;;;;;;;20.35;8.60;;;5.40;99.90;;;;;;5075962;28;20062;-78
2021/05/26 03:08:47;;;;;;;15.23;7.28;;;5.40;99.90;;;;;;5074909;28;20433;-78
2021/05/26 03:11:13;;;;;;;14.48;6.57;;;5.40;99.90;;;;;;5075878;28;20063;-78
2021/05/26 03:13:39;;;;;;;11.48;6.25;;;5.40;99.90;;;;;;5075988;28;20017;-78
2021/05/26 03:16:08;;;;;;;13.63;6.63;;;5.30;99.90;;;;;;5071617;28;20021;-79
2021/05/26 03:18:33;;;;;;;11.13;5.93;;;5.30;99.90;;;;;;5076081;28;20717;-79
2021/05/26 03:20:59;;;;;;;11.82;6.35;;;5.50;99.90;;;;;;5074222;28;20059;-79
2021/05/26 03:23:25;;;;;;;16.13;6.38;;;5.60;99.90;;;;;;5055795;28;20178;-78
2021/05/26 03:25:51;;;;;;;15.52;7.28;;;5.80;99.90;;;;;;5056982;28;20025;-78
2021/05/26 03:28:17;;;;;;;13.13;6.10;;;6.00;99.90;;;;;;5063560;28;20017;-78
2021/05/26 03:30:44;;;;;;;13.88;6.20;;;6.20;99.90;;;;;;5074517;28;20393;-79
2021/05/26 03:33:13;;;;;;;15.50;6.68;;;6.50;99.90;;;;;;5074472;28;20044;-79
2021/05/26 03:35:40;;;;;;;12.85;5.32;;;6.70;99.90;;;;;;5075656;28;20016;-79
2021/05/26 03:38:07;;;;;;;13.13;6.07;;;7.00;99.90;;;;;;5064571;28;20040;-79
2021/05/26 03:40:33;;;;;;;22.90;8.25;;;7.40;99.90;;;;;;5054393;28;20071;-79
2021/05/26 03:42:59;;;;;;;19.63;8.18;;;7.70;99.90;;;;;;5055484;28;20102;-79
2021/05/26 03:45:25;;;;;;;19.40;9.27;;;7.90;99.90;;;;;;5055513;28;20036;-79
2021/05/26 03:47:51;;;;;;;19.08;7.45;;;8.20;99.90;;;;;;5055501;28;20090;-79
2021/05/26 03:50:16;;;;;;;14.38;6.80;;;8.30;99.90;;;;;;5055452;28;20029;-80
2021/05/26 03:52:47;;;;;;;21.17;8.68;;;8.50;99.90;;;;;;5062148;28;20031;-79
2021/05/26 03:55:15;;;;;;;13.20;6.50;;;8.60;99.60;;;;;;5061006;28;20027;-79
2021/05/26 03:57:41;;;;;;;13.30;5.82;;;8.60;95.20;;;;;;5072747;28;20016;-79
2021/05/26 04:00:10;;;;;;;18.17;7.45;;;8.80;97.10;;;;;;5055213;28;20021;-79
2021/05/26 04:02:36;;;;;;;13.93;7.07;;;8.90;95.10;;;;;;5054994;28;20033;-79
2021/05/26 04:05:02;;;;;;;13.32;5.97;;;9.10;96.00;;;;;;5052937;28;20425;-80
2021/05/26 04:07:28;;;;;;;10.18;6.18;;;9.30;95.20;;;;;;5053758;28;20025;-79
2021/05/26 04:09:53;;;;;;;17.25;6.90;;;9.40;93.20;;;;;;5055107;28;20387;-79
2021/05/26 04:12:19;;;;;;;11.93;6.78;;;9.50;91.90;;;;;;5053769;28;20474;-79
2021/05/26 04:14:45;;;;;;;11.52;6.55;;;9.60;91.00;;;;;;5053606;28;20021;-79
2021/05/26 04:17:10;;;;;;;14.10;4.82;;;9.80;90.10;;;;;;5053656;28;20025;-80
2021/05/26 04:19:36;;;;;;;7.22;3.90;;;9.70;88.60;;;;;;5053605;28;20497;-79
2021/05/26 04:22:02;;;;;;;4.43;3.30;;;9.60;87.10;;;;;;5054765;28;20398;-80
2021/05/26 04:24:27;;;;;;;8.20;3.47;;;9.70;88.40;;;;;;5054669;28;20445;-79
2021/05/26 04:26:53;;;;;;;9.75;3.60;;;9.70;88.30;;;;;;5053540;28;20025;-80
2021/05/26 04:29:19;;;;;;;6.35;3.22;;;9.60;88.10;;;;;;5068389;28;20016;-79
2021/05/26 04:31:46;;;;;;;6.88;3.35;;;9.50;87.80;;;;;;5073368;28;20432;-79
2021/05/26 04:34:12;;;;;;;5.43;3.15;;;9.50;88.80;;;;;;5073254;28;20029;-79
2021/05/26 04:36:38;;;;;;;10.30;2.65;;;9.60;88.70;;;;;;5072907;28;20025;-79
2021/05/26 04:39:04;;;;;;;7.45;3.28;;;9.40;87.70;;;;;;5074582;28;20124;-79
2021/05/26 04:41:30;;;;;;;5.13;3.42;;;9.40;88.50;;;;;;5074470;28;20020;-80
2021/05/26 04:43:55;;;;;;;4.95;2.83;;;9.50;89.50;;;;;;5060809;28;20512;-79
2021/05/26 04:46:21;;;;;;;3.35;2.85;;;9.60;89.60;;;;;;5072318;28;20029;-80
2021/05/26 04:48:47;;;;;;;4.50;3.03;;;9.60;88.60;;;;;;5072694;28;20393;-80
2021/05/26 04:51:12;;;;;;;4.40;2.80;;;9.60;88.90;;;;;;5064865;28;20021;-80
2021/05/26 04:53:38;;;;;;;5.35;3.00;;;9.70;89.50;;;;;;5070875;28;20424;-80
2021/05/26 04:56:04;;;;;;;3.90;2.60;;;9.80;89.40;;;;;;5068041;28;20024;-80
2021/05/26 04:58:29;;;;;;;3.65;2.50;;;9.90;90.60;;;;;;5071964;28;20029;-80
2021/05/26 05:00:55;;;;;;;5.82;2.75;;;9.90;88.50;;;;;;5066832;28;20108;-80
2021/05/26 05:03:21;;;;;;;4.00;2.47;;;9.90;88.70;;;;;;5054002;28;20122;-79
2021/05/26 05:05:46;;;;;;;7.25;2.30;;;9.90;87.70;;;;;;5054192;28;20036;-79
2021/05/26 05:08:12;;;;;;;2.28;2.08;;;10.00;89.60;;;;;;5057612;28;20025;-79
2021/05/26 05:10:38;;;;;;;3.78;2.03;;;10.00;86.70;;;;;;5062457;28;20548;-80
2021/05/26 05:13:03;;;;;;;3.83;2.15;;;9.90;85.90;;;;;;5060716;28;20034;-80
2021/05/26 05:15:29;;;;;;;5.05;1.60;;;9.90;84.90;;;;;;5066117;28;20074;-79
2021/05/26 05:17:56;;;;;;;2.75;1.88;;;10.00;83.50;;;;;;5073711;28;20025;-79
2021/05/26 05:20:22;;;;;;;2.28;2.00;;;10.00;83.50;;;;;;5073966;28;20450;-80
2021/05/26 05:22:49;;;;;;;5.10;2.03;;;10.10;83.50;;;;;;5071713;28;20119;-79
2021/05/26 05:25:15;;;;;;;2.60;1.55;;;10.20;83.40;;;;;;5068015;28;20028;-80
2021/05/26 05:27:41;;;;;;;2.65;1.85;;;10.30;84.60;;;;;;5052269;28;20025;-80
2021/05/26 05:30:08;;;;;;;3.38;1.98;;;10.50;81.90;;;;;;5053705;28;20044;-79
2021/05/26 05:32:33;;;;;;;1.92;1.67;;;10.50;82.60;;;;;;5053552;28;20029;-79
2021/05/26 05:34:59;;;;;;;2.33;1.48;;;10.70;81.10;;;;;;5052362;28;20082;-80
2021/05/26 05:37:25;;;;;;;1.67;1.40;;;10.90;79.50;;;;;;5052462;28;20368;-79
2021/05/26 05:39:52;;;;;;;2.00;1.60;;;10.90;76.80;;;;;;5054420;28;20017;-80
2021/05/26 05:42:18;;;;;;;1.40;1.10;;;11.00;76.10;;;;;;5071973;28;20037;-79
2021/05/26 05:44:44;;;;;;;3.75;1.90;;;11.10;76.10;;;;;;5072027;28;20028;-79
2021/05/26 05:47:10;;;;;;;2.47;1.23;;;11.20;75.80;;;;;;5071922;28;20035;-79
2021/05/26 05:49:36;;;;;;;1.27;1.17;;;11.30;76.30;;;;;;5073257;28;20389;-80
2021/05/26 05:52:02;;;;;;;1.55;1.42;;;11.50;76.00;;;;;;5069758;28;20473;-80
2021/05/26 05:54:27;;;;;;;2.15;1.60;;;11.70;73.20;;;;;;5072545;28;20032;-80
2021/05/26 05:56:53;;;;;;;5.80;1.48;;;11.80;70.90;;;;;;5053151;28;20458;-80
2021/05/26 05:59:19;;;;;;;3.00;1.20;;;11.90;70.40;;;;;;5057534;28;20082;-80
2021/05/26 06:01:44;;;;;;;3.85;1.58;;;11.90;68.20;;;;;;5052978;28;20028;-79
2021/05/26 06:04:10;;;;;;;3.50;1.40;;;12.00;69.60;;;;;;5054035;28;20399;-80
2021/05/26 06:06:35;;;;;;;4.00;1.33;;;12.00;68.60;;;;;;5071655;28;20066;-80
2021/05/26 06:09:01;;;;;;;8.35;2.38;;;12.10;66.40;;;;;;5072941;28;20025;-80
2021/05/26 06:11:27;;;;;;;1.77;0.90;;;12.00;65.90;;;;;;5058896;28;20386;-81
2021/05/26 06:13:53;;;;;;;3.03;1.15;;;12.10;64.90;;;;;;5067519;28;20061;-80
2021/05/26 06:16:18;;;;;;;3.15;1.35;;;12.20;66.70;;;;;;5066995;28;20559;-80
2021/05/26 06:18:44;;;;;;;3.03;2.50;;;12.30;69.40;;;;;;5064722;28;20032;-80
2021/05/26 06:21:10;;;;;;;1.90;1.10;;;12.30;66.10;;;;;;5057738;28;20018;-79
2021/05/26 06:23:35;;;;;;;1.33;1.10;;;12.60;65.80;;;;;;5059645;28;20029;-80
2021/05/26 06:26:02;;;;;;;11.27;3.00;;;12.80;66.20;;;;;;5054312;28;20486;-81
2021/05/26 06:28:28;;;;;;;2.20;1.30;;;12.90;64.20;;;;;;5058775;28;20037;-80
2021/05/26 06:30:57;;;;;;;1.38;1.00;;;13.00;63.20;;;;;;5067043;28;20028;-80
2021/05/26 06:33:23;;;;;;;1.35;1.25;;;13.10;61.20;;;;;;5068104;28;20555;-78
2021/05/26 06:35:48;;;;;;;1.92;0.98;;;13.20;61.40;;;;;;5068483;28;20017;-78
2021/05/26 06:38:14;;;;;;;2.45;1.00;;;13.30;60.20;;;;;;5066799;28;20074;-77
2021/05/26 06:40:40;;;;;;;2.35;1.00;;;13.40;59.90;;;;;;5066286;28;20035;-77
2021/05/26 06:43:05;;;;;;;1.67;1.08;;;13.60;60.80;;;;;;5071615;28;20039;-77
2021/05/26 06:45:31;;;;;;;2.88;1.30;;;13.80;59.60;;;;;;5072288;28;20024;-78
2021/05/26 06:47:56;;;;;;;5.15;1.10;;;13.90;59.20;;;;;;5067755;28;20052;-76
2021/05/26 06:50:22;;;;;;;2.53;0.77;;;14.00;59.10;;;;;;5075494;28;20075;-78
2021/05/26 06:52:48;;;;;;;3.83;1.27;;;14.10;57.80;;;;;;5073451;28;20028;-77
2021/05/26 06:55:13;;;;;;;1.55;0.98;;;14.30;58.40;;;;;;5078104;28;20028;-77
2021/05/26 06:57:39;;;;;;;2.78;1.02;;;14.50;58.60;;;;;;5077358;28;20025;-78
2021/05/26 07:00:06;;;;;;;2.28;1.10;;;14.30;55.00;;;;;;5071844;28;20540;-77
2021/05/26 07:02:31;;;;;;;2.70;0.90;;;14.40;56.20;;;;;;5067187;28;20041;-78
2021/05/26 07:04:57;;;;;;;3.60;1.45;;;14.60;57.50;;;;;;5058853;28;20035;-78
2021/05/26 07:07:23;;;;;;;1.92;0.98;;;14.80;57.20;;;;;;5058461;28;20020;-78
2021/05/26 07:09:49;;;;;;;2.45;1.08;;;14.80;55.30;;;;;;5062621;28;20032;-79
2021/05/26 07:12:14;;;;;;;3.15;1.23;;;14.90;56.10;;;;;;5066524;28;20021;-79
2021/05/26 07:14:41;;;;;;;1.27;0.90;;;15.20;57.10;;;;;;5067316;28;20028;-78
2021/05/26 07:17:08;;;;;;;2.20;1.30;;;15.10;54.80;;;;;;5066428;28;20494;-78
2021/05/26 07:19:34;;;;;;;2.00;1.10;;;15.00;54.00;;;;;;5068536;28;20037;-78
2021/05/26 07:21:59;;;;;;;2.08;1.00;;;15.30;56.40;;;;;;5071008;28;20478;-79
2021/05/26 07:24:25;;;;;;;1.90;1.00;;;15.40;54.30;;;;;;5074526;28;20062;-78
2021/05/26 07:26:51;;;;;;;5.47;1.20;;;15.70;55.90;;;;;;5075293;28;20035;-78
2021/05/26 07:29:16;;;;;;;2.65;1.15;;;15.80;55.10;;;;;;5075908;28;20119;-79
2021/05/26 07:31:42;;;;;;;1.75;1.08;;;15.90;53.90;;;;;;5075474;28;20112;-79
2021/05/26 07:34:08;;;;;;;6.07;1.52;;;15.80;52.90;;;;;;5074539;28;20485;-78
2021/05/26 07:36:34;;;;;;;2.35;1.00;;;15.70;51.20;;;;;;5077032;28;20024;-79
2021/05/26 07:39:01;;;;;;;2.38;1.20;;;15.70;52.60;;;;;;5076093;28;20521;-79
2021/05/26 07:41:27;;;;;;;1.58;0.75;;;15.80;53.20;;;;;;5069305;28;20024;-78
2021/05/26 07:43:53;;;;;;;2.72;1.10;;;16.00;52.10;;;;;;5067498;28;20024;-78
2021/05/26 07:46:18;;;;;;;3.95;1.45;;;15.90;51.10;;;;;;5071924;28;20032;-79
2021/05/26 07:48:44;;;;;;;3.13;1.00;;;16.10;50.70;;;;;;5073269;28;20074;-79
2021/05/26 07:51:14;;;;;;;2.03;0.70;;;16.30;52.80;;;;;;5072304;28;20584;-79
2021/05/26 07:53:40;;;;;;;2.92;0.70;;;16.20;50.60;;;;;;5075066;28;20021;-78
2021/05/26 07:56:06;;;;;;;3.33;0.95;;;16.30;50.70;;;;;;5062945;28;20036;-80
2021/05/26 07:58:31;;;;;;;1.10;0.93;;;16.00;49.60;;;;;;5053048;28;20032;-79
2021/05/26 08:00:57;;;;;;;3.30;1.00;;;16.00;49.20;;;;;;5070129;28;20401;-79
2021/05/26 08:03:23;;;;;;;2.15;0.65;;;16.20;50.60;;;;;;5072938;28;20505;-79
2021/05/26 08:05:48;;;;;;;4.15;0.82;;;16.30;49.70;;;;;;5072665;28;20489;-79
2021/05/26 08:08:14;;;;;;;1.30;0.60;;;16.10;48.70;;;;;;5072970;28;20555;-80
2021/05/26 08:10:40;;;;;;;2.05;0.50;;;16.00;49.00;;;;;;5072701;28;20025;-78
2021/05/26 08:13:06;;;;;;;2.58;0.80;;;15.80;47.50;;;;;;5070996;28;20386;-79
2021/05/26 08:15:31;;;;;;;2.67;0.90;;;15.90;48.30;;;;;;5055431;28;20031;-79
2021/05/26 08:17:57;;;;;;;1.08;0.60;;;15.90;49.80;;;;;;5069956;28;20032;-79
2021/05/26 08:20:23;;;;;;;3.92;0.77;;;16.10;50.80;;;;;;5070564;28;20028;-79
2021/05/26 08:22:49;;;;;;;3.47;0.82;;;16.30;48.00;;;;;;5071404;28;20067;-79
2021/05/26 08:25:15;;;;;;;4.38;0.70;;;16.60;48.20;;;;;;5070150;28;20024;-79
2021/05/26 08:27:41;;;;;;;4.10;0.70;;;16.60;48.70;;;;;;5069199;28;20386;-80
2021/05/26 08:30:07;;;;;;;2.25;0.60;;;16.50;49.10;;;;;;5070932;28;20016;-79
2021/05/26 08:32:33;;;;;;;1.92;0.75;;;16.30;49.00;;;;;;5068029;28;20040;-80
2021/05/26 08:34:59;;;;;;;2.35;1.05;;;16.00;47.30;;;;;;5070679;28;20055;-79
2021/05/26 08:37:24;;;;;;;1.30;0.70;;;16.30;47.80;;;;;;5062273;28;20484;-78
2021/05/26 08:39:50;;;;;;;3.88;0.98;;;16.20;47.50;;;;;;5070513;28;20459;-79
2021/05/26 08:42:17;;;;;;;1.88;0.63;;;16.40;48.10;;;;;;5070932;28;20035;-78
2021/05/26 08:44:43;;;;;;;1.35;0.60;;;16.60;48.00;;;;;;5067180;28;20020;-79
2021/05/26 08:47:15;;;;;;;1.33;0.65;;;16.70;48.10;;;;;;5069203;28;20558;-79
2021/05/26 08:49:44;;;;;;;1.88;0.80;;;16.50;46.80;;;;;;5070487;28;20479;-79
2021/05/26 08:52:09;;;;;;;2.55;0.70;;;16.50;46.40;;;;;;5068354;28;20031;-79
2021/05/26 08:54:35;;;;;;;4.18;1.10;;;16.60;46.90;;;;;;5070322;28;20029;-78
2021/05/26 08:57:01;;;;;;;3.40;1.02;;;16.60;47.80;;;;;;5070364;28;20035;-79
2021/05/26 08:59:26;;;;;;;0.88;0.65;;;16.50;46.50;;;;;;5070121;28;20413;-77
2021/05/26 09:01:53;;;;;;;3.30;0.90;;;16.90;48.60;;;;;;5069320;28;20051;-79
2021/05/26 09:04:25;;;;;;;2.15;0.80;;;17.10;47.20;;;;;;5068911;28;20035;-80
2021/05/26 09:07:08;;;;;;;3.67;0.68;;;16.80;44.80;;;;;;5071431;28;20501;-80
2021/05/26 09:09:48;;;;;;;4.78;1.40;;;17.10;46.10;;;;;;5070503;28;20086;-79
2021/05/26 09:12:22;;;;;;;3.22;0.93;;;17.00;45.20;;;;;;5071797;28;20031;-81
2021/05/26 09:14:48;;;;;;;2.80;1.20;;;17.10;45.30;;;;;;5071095;28;20013;-81
2021/05/26 09:17:13;;;;;;;2.80;0.90;;;17.10;47.00;;;;;;5071746;28;20081;-78
2021/05/26 09:19:39;;;;;;;2.13;1.00;;;17.50;47.70;;;;;;5071754;28;20028;-80
2021/05/26 09:22:19;;;;;;;1.60;1.25;;;17.80;46.90;;;;;;5066674;28;20024;-79
2021/05/26 09:24:45;;;;;;;0.93;0.73;;;18.00;46.50;;;;;;5069102;28;20020;-78
2021/05/26 09:27:13;;;;;;;4.60;0.82;;;18.30;47.20;;;;;;5070734;28;20386;-79
2021/05/26 09:29:44;;;;;;;1.02;0.80;;;17.90;44.80;;;;;;5066764;28;20493;-77
2021/05/26 09:32:21;;;;;;;3.20;1.00;;;17.90;45.00;;;;;;5068025;28;20478;-80
2021/05/26 09:34:55;;;;;;;2.65;0.90;;;18.00;45.60;;;;;;5069204;28;20386;-80
2021/05/26 09:37:30;;;;;;;2.35;0.80;;;18.30;46.70;;;;;;5063689;28;20240;-78
2021/05/26 09:40:10;;;;;;;2.70;0.50;;;18.00;44.80;;;;;;5068426;28;20048;-79
2021/05/26 09:42:42;;;;;;;1.52;0.90;;;17.90;44.40;;;;;;5067322;28;20111;-79
2021/05/26 09:45:26;;;;;;;6.32;0.75;;;18.10;45.40;;;;;;5069593;28;20017;-79
2021/05/26 09:47:56;;;;;;;2.80;0.65;;;18.30;44.20;;;;;;5067937;28;20024;-79
2021/05/26 09:50:33;;;;;;;8.77;2.00;;;18.30;42.90;;;;;;5069718;28;20394;-79
2021/05/26 09:53:08;;;;;;;1.85;0.50;;;18.40;41.30;;;;;;5068527;28;20020;-77
2021/05/26 09:55:38;;;;;;;1.55;0.57;;;18.60;42.10;;;;;;5064556;28;20124;-78
2021/05/26 09:58:06;;;;;;;3.10;0.50;;;18.60;41.10;;;;;;5066687;28;20024;-77
2021/05/26 10:00:34;;;;;;;2.38;0.60;;;18.80;42.00;;;;;;5064876;28;20066;-78
2021/05/26 10:02:59;;;;;;;1.60;0.65;;;18.80;41.50;;;;;;5065044;28;20074;-79
2021/05/26 10:05:26;;;;;;;3.13;0.43;;;18.90;41.50;;;;;;5068754;28;20024;-78
2021/05/26 10:07:53;;;;;;;2.40;0.77;;;18.60;39.80;;;;;;5070575;28;20012;-78
2021/05/26 10:10:20;;;;;;;2.00;0.50;;;18.70;40.00;;;;;;5071086;28;20096;-77
2021/05/26 10:12:55;;;;;;;1.15;0.70;;;18.90;40.60;;;;;;5066708;28;20025;-78
2021/05/26 10:15:23;;;;;;;2.25;0.60;;;18.80;39.70;;;;;;5066119;28;20545;-78
2021/05/26 10:17:51;;;;;;;4.80;0.80;;;18.70;41.50;;;;;;5070281;28;20490;-78
2021/05/26 10:20:19;;;;;;;2.75;0.60;;;18.20;40.80;;;;;;5068567;28;20025;-80
2021/05/26 10:22:49;;;;;;;3.42;1.17;;;18.40;42.50;;;;;;5067828;28;20041;-78
2021/05/26 10:25:15;;;;;;;1.63;0.70;;;18.80;44.00;;;;;;5069535;28;20074;-78
2021/05/26 10:27:52;;;;;;;1.38;0.65;;;18.80;42.40;;;;;;5070065;28;20047;-79
2021/05/26 10:30:20;;;;;;;2.35;0.90;;;19.00;42.60;;;;;;5066684;28;20419;-78
2021/05/26 10:32:52;;;;;;;1.70;0.68;;;18.90;41.30;;;;;;5067351;28;20131;-78
2021/05/26 10:35:18;;;;;;;1.10;0.70;;;18.80;41.30;;;;;;5067656;28;20032;-79
2021/05/26 10:37:46;;;;;;;2.33;0.70;;;18.60;39.20;;;;;;5068105;28;20037;-78
2021/05/26 10:40:30;;;;;;;3.47;1.25;;;19.10;42.20;;;;;;5066422;28;20385;-78
2021/05/26 10:42:56;;;;;;;1.02;0.50;;;19.30;42.20;;;;;;5067617;28;20056;-77
2021/05/26 10:45:35;;;;;;;3.92;0.77;;;19.20;40.10;;;;;;5068090;28;20032;-78
2021/05/26 10:48:01;;;;;;;1.85;0.60;;;19.10;39.50;;;;;;5070024;28;20389;-78
2021/05/26 10:50:44;;;;;;;0.85;0.85;;;19.10;39.70;;;;;;5070015;28;20033;-78
2021/05/26 10:53:10;;;;;;;1.95;0.63;;;18.90;40.20;;;;;;5069355;28;20036;-77
2021/05/26 10:55:43;;;;;;;1.55;0.95;;;18.70;40.10;;;;;;5064054;28;20033;-78
2021/05/26 10:58:26;;;;;;;1.00;0.60;;;18.90;40.60;;;;;;5062955;28;20481;-79
2021/05/26 11:01:01;;;;;;;2.97;0.80;;;18.90;39.30;;;;;;5066901;28;20401;-78
2021/05/26 11:03:30;;;;;;;4.22;1.15;;;18.30;38.70;;;;;;5068181;28;20047;-77
2021/05/26 11:06:24;;;;;;;1.52;0.60;;;17.90;39.10;;;;;;5067550;28;20029;-78
2021/05/26 11:08:55;;;;;;;4.97;0.60;;;17.80;39.50;;;;;;5062769;28;20029;-78
2021/05/26 11:11:45;;;;;;;3.00;0.57;;;18.20;39.80;;;;;;5068917;28;20534;-77
2021/05/26 11:16:38;;;;;;;1.63;0.95;;;19.10;41.40;;;;;;5073491;28;20032;-79
2021/05/26 11:19:14;;;;;;;2.17;0.70;;;19.50;42.00;;;;;;5070607;28;20106;-79
2021/05/26 11:21:41;;;;;;;1.15;0.50;;;19.40;40.10;;;;;;5073023;28;20045;-79
2021/05/26 11:24:08;;;;;;;4.60;0.80;;;19.30;39.20;;;;;;5071131;28;20040;-79
2021/05/26 11:26:35;;;;;;;3.78;0.90;;;19.60;39.60;;;;;;5069838;28;20029;-79
2021/05/26 11:29:02;;;;;;;1.40;0.80;;;19.70;39.60;;;;;;5071536;28;20024;-79
2021/05/26 11:31:28;;;;;;;4.88;0.90;;;19.90;39.80;;;;;;5072327;28;20028;-79
2021/05/26 11:33:55;;;;;;;3.55;0.80;;;20.00;39.30;;;;;;5072288;28;20116;-79
2021/05/26 11:36:39;;;;;;;2.90;0.90;;;20.20;39.40;;;;;;5072349;28;20107;-79
2021/05/26 11:39:27;;;;;;;1.90;1.10;;;20.20;39.50;;;;;;5073723;28;20040;-79
2021/05/26 11:42:11;;;;;;;4.03;0.80;;;20.00;38.40;;;;;;5069907;28;20013;-79
2021/05/26 11:44:44;;;;;;;1.75;0.75;;;20.10;38.70;;;;;;5074398;28;20930;-79
2021/05/26 11:47:11;;;;;;;3.17;0.90;;;20.10;38.50;;;;;;5070517;28;20020;-79
2021/05/26 11:49:42;;;;;;;4.32;1.00;;;20.00;38.10;;;;;;5073385;28;20020;-79
2021/05/26 11:52:10;;;;;;;2.83;0.70;;;19.90;38.60;;;;;;5070399;28;20124;-78
2021/05/26 11:55:12;;;;;;;2.20;1.15;;;19.80;38.40;;;;;;5072033;28;20017;-78
2021/05/26 11:57:42;;;;;;;3.95;0.80;;;19.80;38.80;;;;;;5071543;28;20032;-79
2021/05/26 12:00:11;;;;;;;1.35;0.80;;;19.70;38.70;;;;;;5068624;28;20505;-79
2021/05/26 12:02:58;;;;;;;3.17;1.58;;;19.80;38.80;;;;;;5068676;28;20131;-78
2021/05/26 12:05:57;;;;;;;2.70;0.98;;;19.70;38.20;;;;;;5070916;28;20036;-78
2021/05/26 12:08:27;;;;;;;1.83;0.90;;;19.70;38.40;;;;;;5057604;28;20429;-78
2021/05/26 12:11:16;;;;;;;3.05;1.40;;;19.70;38.70;;;;;;5071152;28;20374;-77
2021/05/26 12:13:46;;;;;;;3.72;0.98;;;19.80;39.50;;;;;;5068629;28;20421;-77
2021/05/26 12:16:14;;;;;;;1.70;0.98;;;19.90;38.80;;;;;;5070968;28;20367;-77
2021/05/26 12:18:52;;;;;;;2.70;0.75;;;20.20;39.70;;;;;;5069293;28;20374;-78
2021/05/26 12:21:20;;;;;;;3.95;1.10;;;20.40;40.60;;;;;;5069475;28;20060;-77
2021/05/26 12:23:49;;;;;;;1.20;0.70;;;20.60;39.70;;;;;;5071206;28;20055;-77
2021/05/26 12:26:35;;;;;;;2.95;0.70;;;20.50;39.70;;;;;;5067462;28;20031;-78
2021/05/26 12:29:05;;;;;;;2.13;1.00;;;19.90;37.10;;;;;;5072029;28;20082;-79
2021/05/26 12:31:31;;;;;;;2.35;1.08;;;19.70;38.10;;;;;;5072042;28;20046;-77
2021/05/26 12:33:58;;;;;;;1.00;0.75;;;19.60;38.90;;;;;;5069805;28;20031;-78
2021/05/26 12:36:46;;;;;;;4.50;0.90;;;19.50;38.60;;;;;;5069585;28;20486;-77
2021/05/26 12:39:11;;;;;;;2.42;1.23;;;19.50;39.00;;;;;;5067561;28;20021;-78
2021/05/26 12:41:38;;;;;;;2.78;1.10;;;19.60;39.40;;;;;;5064605;28;20031;-77
2021/05/26 12:44:10;;;;;;;2.42;0.60;;;19.60;39.00;;;;;;5069139;28;20482;-78
2021/05/26 12:46:53;;;;;;;3.23;0.80;;;19.60;38.80;;;;;;5069025;28;20082;-78
2021/05/26 12:49:33;;;;;;;1.67;0.75;;;19.70;38.40;;;;;;5067562;28;20040;-78
2021/05/26 12:52:02;;;;;;;1.70;0.80;;;19.80;39.30;;;;;;5066329;28;20492;-78
2021/05/26 12:54:38;;;;;;;3.92;0.98;;;19.70;38.90;;;;;;5065153;28;20029;-78